sensor_id;sensor_type;location;lat;lon;timestamp;temperature;humidity
49549;DHT22;35450;44.518;7.466;2023-06-14T00:01:49;19.60;99.90
49549;DHT22;35450;44.518;7.466;2023-06-14T00:04:53;19.50;99.90
49549;DHT22;35450;44.518;7.466;2023-06-14T00:07:57;19.50;99.90
49549;DHT22;35450;44.518;7.466;2023-06-14T00:11:01;19.50;99.90
49549;DHT22;35450;44.518;7.466;2023-06-14T00:14:05;19.50;99.90
49549;DHT22;35450;44.518;7.466;2023-06-14T00:17:10;19.40;99.90
49549;DHT22;35450;44.518;7.466;2023-06-14T00:20:13;19.40;99.90
49549;DHT22;35450;44.518;7.466;2023-06-14T00:23:18;19.30;99.90
49549;DHT22;35450;44.518;7.466;2023-06-14T00:26:22;19.40;99.90
49549;DHT22;35450;44.518;7.466;2023-06-14T00:29:26;19.30;99.90
49549;DHT22;35450;44.518;7.466;2023-06-14T00:32:30;19.40;99.90
49549;DHT22;35450;44.518;7.466;2023-06-14T00:35:34;19.40;99.90
49549;DHT22;35450;44.518;7.466;2023-06-14T00:38:38;19.50;99.90
49549;DHT22;35450;44.518;7.466;2023-06-14T00:41:41;19.40;99.90
49549;DHT22;35450;44.518;7.466;2023-06-14T00:44:46;19.40;99.90
49549;DHT22;35450;44.518;7.466;2023-06-14T00:47:50;19.40;99.90
49549;DHT22;35450;44.518;7.466;2023-06-14T00:50:57;19.40;99.90
49549;DHT22;35450;44.518;7.466;2023-06-14T00:54:02;19.40;99.90
49549;DHT22;35450;44.518;7.466;2023-06-14T00:57:06;19.30;99.90
49549;DHT22;35450;44.518;7.466;2023-06-14T01:00:11;19.40;99.90
49549;DHT22;35450;44.518;7.466;2023-06-14T01:03:15;19.30;99.90
49549;DHT22;35450;44.518;7.466;2023-06-14T01:13:25;19.40;99.90
49549;DHT22;35450;44.518;7.466;2023-06-14T01:16:31;19.40;99.90
49549;DHT22;35450;44.518;7.466;2023-06-14T01:19:36;19.40;99.90
49549;DHT22;35450;44.518;7.466;2023-06-14T01:22:53;19.40;99.90
49549;DHT22;35450;44.518;7.466;2023-06-14T01:25:58;19.30;99.90
49549;DHT22;35450;44.518;7.466;2023-06-14T01:29:02;19.40;99.90
49549;DHT22;35450;44.518;7.466;2023-06-14T01:32:07;19.40;99.90
49549;DHT22;35450;44.518;7.466;2023-06-14T01:35:11;19.30;99.90
49549;DHT22;35450;44.518;7.466;2023-06-14T01:38:16;19.30;99.90
49549;DHT22;35450;44.518;7.466;2023-06-14T01:41:21;19.30;99.90
49549;DHT22;35450;44.518;7.466;2023-06-14T01:44:27;19.40;99.90
49549;DHT22;35450;44.518;7.466;2023-06-14T01:47:31;19.30;99.90
49549;DHT22;35450;44.518;7.466;2023-06-14T01:50:36;19.30;99.90
49549;DHT22;35450;44.518;7.466;2023-06-14T01:53:41;19.40;99.90
49549;DHT22;35450;44.518;7.466;2023-06-14T01:56:47;19.30;99.90
49549;DHT22;35450;44.518;7.466;2023-06-14T01:59:51;19.30;99.90
49549;DHT22;35450;44.518;7.466;2023-06-14T02:02:55;19.20;99.90
49549;DHT22;35450;44.518;7.466;2023-06-14T02:06:00;19.20;99.90
49549;DHT22;35450;44.518;7.466;2023-06-14T02:09:04;19.20;99.90
49549;DHT22;35450;44.518;7.466;2023-06-14T02:12:09;19.20;99.90
49549;DHT22;35450;44.518;7.466;2023-06-14T02:15:13;19.30;99.90
49549;DHT22;35450;44.518;7.466;2023-06-14T02:18:21;19.30;99.90
49549;DHT22;35450;44.518;7.466;2023-06-14T02:21:25;19.40;99.90
49549;DHT22;35450;44.518;7.466;2023-06-14T02:24:29;19.40;99.90
49549;DHT22;35450;44.518;7.466;2023-06-14T02:27:34;19.40;99.90
49549;DHT22;35450;44.518;7.466;2023-06-14T02:30:38;19.30;99.90
49549;DHT22;35450;44.518;7.466;2023-06-14T02:33:42;19.30;99.90
49549;DHT22;35450;44.518;7.466;2023-06-14T02:36:46;19.30;99.90
49549;DHT22;35450;44.518;7.466;2023-06-14T02:39:51;19.40;99.90
49549;DHT22;35450;44.518;7.466;2023-06-14T02:42:55;19.40;99.90
49549;DHT22;35450;44.518;7.466;2023-06-14T02:45:59;19.30;99.90
49549;DHT22;35450;44.518;7.466;2023-06-14T02:49:03;19.30;99.90
49549;DHT22;35450;44.518;7.466;2023-06-14T02:52:09;19.30;99.90
49549;DHT22;35450;44.518;7.466;2023-06-14T02:55:13;19.30;99.90
49549;DHT22;35450;44.518;7.466;2023-06-14T02:58:18;19.30;99.90
49549;DHT22;35450;44.518;7.466;2023-06-14T03:01:22;19.30;99.90
49549;DHT22;35450;44.518;7.466;2023-06-14T03:04:27;19.30;99.90
49549;DHT22;35450;44.518;7.466;2023-06-14T03:07:33;19.30;99.90
49549;DHT22;35450;44.518;7.466;2023-06-14T03:10:39;19.20;99.90
49549;DHT22;35450;44.518;7.466;2023-06-14T03:13:43;19.30;99.90
49549;DHT22;35450;44.518;7.466;2023-06-14T03:16:49;19.30;99.90
49549;DHT22;35450;44.518;7.466;2023-06-14T03:19:54;19.20;99.90
49549;DHT22;35450;44.518;7.466;2023-06-14T03:23:00;19.10;99.90
49549;DHT22;35450;44.518;7.466;2023-06-14T03:26:04;19.10;99.90
49549;DHT22;35450;44.518;7.466;2023-06-14T03:29:09;19.20;99.90
49549;DHT22;35450;44.518;7.466;2023-06-14T03:32:13;19.20;99.90
49549;DHT22;35450;44.518;7.466;2023-06-14T03:35:20;19.20;99.90
49549;DHT22;35450;44.518;7.466;2023-06-14T03:38:26;19.20;99.90
49549;DHT22;35450;44.518;7.466;2023-06-14T03:41:30;19.20;99.90
49549;DHT22;35450;44.518;7.466;2023-06-14T03:44:34;19.20;99.90
49549;DHT22;35450;44.518;7.466;2023-06-14T03:47:39;19.20;99.90
49549;DHT22;35450;44.518;7.466;2023-06-14T03:50:43;19.10;99.90
49549;DHT22;35450;44.518;7.466;2023-06-14T03:53:48;19.10;99.90
49549;DHT22;35450;44.518;7.466;2023-06-14T03:56:52;19.10;99.90
49549;DHT22;35450;44.518;7.466;2023-06-14T03:59:56;19.10;99.90
49549;DHT22;35450;44.518;7.466;2023-06-14T04:03:01;19.00;99.90
49549;DHT22;35450;44.518;7.466;2023-06-14T04:06:07;19.10;99.90
49549;DHT22;35450;44.518;7.466;2023-06-14T04:09:11;19.10;99.90
49549;DHT22;35450;44.518;7.466;2023-06-14T04:12:15;19.10;99.90
49549;DHT22;35450;44.518;7.466;2023-06-14T04:15:19;19.10;99.90
49549;DHT22;35450;44.518;7.466;2023-06-14T04:18:23;19.10;99.90
49549;DHT22;35450;44.518;7.466;2023-06-14T04:21:27;19.10;99.90
49549;DHT22;35450;44.518;7.466;2023-06-14T04:24:33;19.10;99.90
49549;DHT22;35450;44.518;7.466;2023-06-14T04:27:38;19.10;99.90
49549;DHT22;35450;44.518;7.466;2023-06-14T04:30:44;18.90;99.90
49549;DHT22;35450;44.518;7.466;2023-06-14T04:33:52;18.90;99.90
49549;DHT22;35450;44.518;7.466;2023-06-14T04:37:00;18.80;99.90
49549;DHT22;35450;44.518;7.466;2023-06-14T04:40:11;18.80;99.90
49549;DHT22;35450;44.518;7.466;2023-06-14T04:43:16;18.90;99.90
49549;DHT22;35450;44.518;7.466;2023-06-14T04:46:23;19.10;99.90
49549;DHT22;35450;44.518;7.466;2023-06-14T04:49:27;19.00;99.90
49549;DHT22;35450;44.518;7.466;2023-06-14T04:52:31;19.00;99.90
49549;DHT22;35450;44.518;7.466;2023-06-14T04:55:35;19.00;99.90
49549;DHT22;35450;44.518;7.466;2023-06-14T04:58:41;19.10;99.90
49549;DHT22;35450;44.518;7.466;2023-06-14T05:01:45;19.10;99.90
49549;DHT22;35450;44.518;7.466;2023-06-14T05:04:53;19.10;99.90
49549;DHT22;35450;44.518;7.466;2023-06-14T05:07:57;19.10;99.90
49549;DHT22;35450;44.518;7.466;2023-06-14T05:11:01;19.10;99.90
49549;DHT22;35450;44.518;7.466;2023-06-14T05:14:05;19.10;99.90
49549;DHT22;35450;44.518;7.466;2023-06-14T05:17:10;19.10;99.90
49549;DHT22;35450;44.518;7.466;2023-06-14T05:20:14;19.10;99.90
49549;DHT22;35450;44.518;7.466;2023-06-14T05:23:19;19.10;99.90
49549;DHT22;35450;44.518;7.466;2023-06-14T05:26:23;19.10;99.90
49549;DHT22;35450;44.518;7.466;2023-06-14T05:29:32;19.10;99.90
49549;DHT22;35450;44.518;7.466;2023-06-14T05:32:36;19.10;99.90
49549;DHT22;35450;44.518;7.466;2023-06-14T05:35:40;19.10;99.90
49549;DHT22;35450;44.518;7.466;2023-06-14T05:38:45;19.10;99.90
49549;DHT22;35450;44.518;7.466;2023-06-14T05:41:49;19.10;99.90
49549;DHT22;35450;44.518;7.466;2023-06-14T05:44:53;19.10;99.90
49549;DHT22;35450;44.518;7.466;2023-06-14T05:47:57;19.10;99.90
49549;DHT22;35450;44.518;7.466;2023-06-14T05:51:01;19.10;99.90
49549;DHT22;35450;44.518;7.466;2023-06-14T05:54:05;19.10;99.90
49549;DHT22;35450;44.518;7.466;2023-06-14T05:57:10;19.10;99.90
49549;DHT22;35450;44.518;7.466;2023-06-14T06:00:16;19.20;99.90
49549;DHT22;35450;44.518;7.466;2023-06-14T06:03:19;19.20;99.90
49549;DHT22;35450;44.518;7.466;2023-06-14T06:06:25;19.20;99.90
49549;DHT22;35450;44.518;7.466;2023-06-14T06:09:29;19.20;99.90
49549;DHT22;35450;44.518;7.466;2023-06-14T06:12:33;19.20;99.90
49549;DHT22;35450;44.518;7.466;2023-06-14T06:15:37;19.20;99.90
49549;DHT22;35450;44.518;7.466;2023-06-14T06:18:41;19.20;99.90
49549;DHT22;35450;44.518;7.466;2023-06-14T06:21:46;19.30;99.90
49549;DHT22;35450;44.518;7.466;2023-06-14T06:24:50;19.30;99.90
49549;DHT22;35450;44.518;7.466;2023-06-14T06:27:55;19.20;99.90
49549;DHT22;35450;44.518;7.466;2023-06-14T06:31:01;19.20;99.90
49549;DHT22;35450;44.518;7.466;2023-06-14T06:34:06;19.20;99.90
49549;DHT22;35450;44.518;7.466;2023-06-14T06:37:10;19.20;99.90
49549;DHT22;35450;44.518;7.466;2023-06-14T06:40:14;19.20;99.90
49549;DHT22;35450;44.518;7.466;2023-06-14T06:43:18;19.20;99.90
49549;DHT22;35450;44.518;7.466;2023-06-14T06:46:25;19.10;99.90
49549;DHT22;35450;44.518;7.466;2023-06-14T06:49:29;19.10;99.90
49549;DHT22;35450;44.518;7.466;2023-06-14T06:52:33;19.00;99.90
49549;DHT22;35450;44.518;7.466;2023-06-14T06:55:38;18.90;99.90
49549;DHT22;35450;44.518;7.466;2023-06-14T06:58:42;18.90;99.90
49549;DHT22;35450;44.518;7.466;2023-06-14T07:01:46;18.70;99.90
49549;DHT22;35450;44.518;7.466;2023-06-14T07:04:50;18.70;99.90
49549;DHT22;35450;44.518;7.466;2023-06-14T07:07:56;18.60;99.90
49549;DHT22;35450;44.518;7.466;2023-06-14T07:11:00;18.60;99.90
49549;DHT22;35450;44.518;7.466;2023-06-14T07:14:04;18.70;99.90
49549;DHT22;35450;44.518;7.466;2023-06-14T07:17:09;18.70;99.90
49549;DHT22;35450;44.518;7.466;2023-06-14T07:20:14;18.70;99.90
49549;DHT22;35450;44.518;7.466;2023-06-14T07:23:23;18.70;99.90
49549;DHT22;35450;44.518;7.466;2023-06-14T07:26:27;18.70;99.90
49549;DHT22;35450;44.518;7.466;2023-06-14T07:29:31;18.70;99.90
49549;DHT22;35450;44.518;7.466;2023-06-14T07:32:36;18.70;99.90
49549;DHT22;35450;44.518;7.466;2023-06-14T07:35:41;18.70;99.90
49549;DHT22;35450;44.518;7.466;2023-06-14T07:38:46;18.70;99.90
49549;DHT22;35450;44.518;7.466;2023-06-14T07:41:50;18.90;99.90
49549;DHT22;35450;44.518;7.466;2023-06-14T07:44:54;18.80;99.90
49549;DHT22;35450;44.518;7.466;2023-06-14T07:47:58;18.90;99.90
49549;DHT22;35450;44.518;7.466;2023-06-14T07:51:02;18.90;99.90
49549;DHT22;35450;44.518;7.466;2023-06-14T07:54:06;18.90;99.90
49549;DHT22;35450;44.518;7.466;2023-06-14T07:57:12;18.90;99.90
49549;DHT22;35450;44.518;7.466;2023-06-14T08:00:16;18.90;99.90
49549;DHT22;35450;44.518;7.466;2023-06-14T08:03:21;18.80;99.90
49549;DHT22;35450;44.518;7.466;2023-06-14T08:06:26;18.70;99.90
49549;DHT22;35450;44.518;7.466;2023-06-14T08:09:30;18.60;99.90
49549;DHT22;35450;44.518;7.466;2023-06-14T08:12:34;18.60;99.90
49549;DHT22;35450;44.518;7.466;2023-06-14T08:15:38;18.70;99.90
49549;DHT22;35450;44.518;7.466;2023-06-14T08:18:42;18.90;99.90
49549;DHT22;35450;44.518;7.466;2023-06-14T08:21:47;18.90;99.90
49549;DHT22;35450;44.518;7.466;2023-06-14T08:24:51;19.00;99.90
49549;DHT22;35450;44.518;7.466;2023-06-14T08:27:58;19.00;99.90
49549;DHT22;35450;44.518;7.466;2023-06-14T08:31:03;18.90;99.90
49549;DHT22;35450;44.518;7.466;2023-06-14T08:34:06;18.70;99.90
49549;DHT22;35450;44.518;7.466;2023-06-14T08:37:11;18.60;99.90
49549;DHT22;35450;44.518;7.466;2023-06-14T08:40:20;18.70;99.90
49549;DHT22;35450;44.518;7.466;2023-06-14T08:43:24;18.70;99.90
49549;DHT22;35450;44.518;7.466;2023-06-14T08:46:30;18.80;99.90
49549;DHT22;35450;44.518;7.466;2023-06-14T08:49:36;18.70;99.90
49549;DHT22;35450;44.518;7.466;2023-06-14T08:52:45;18.50;99.90
49549;DHT22;35450;44.518;7.466;2023-06-14T08:55:54;18.50;99.90
49549;DHT22;35450;44.518;7.466;2023-06-14T08:59:00;18.40;99.90
49549;DHT22;35450;44.518;7.466;2023-06-14T09:02:10;18.40;99.90
49549;DHT22;35450;44.518;7.466;2023-06-14T09:05:18;18.60;99.90
49549;DHT22;35450;44.518;7.466;2023-06-14T09:08:22;18.60;99.90
49549;DHT22;35450;44.518;7.466;2023-06-14T09:11:27;18.70;99.90
49549;DHT22;35450;44.518;7.466;2023-06-14T09:14:33;18.70;99.90
49549;DHT22;35450;44.518;7.466;2023-06-14T09:17:42;18.80;99.90
49549;DHT22;35450;44.518;7.466;2023-06-14T09:20:46;18.90;99.90
49549;DHT22;35450;44.518;7.466;2023-06-14T09:23:51;19.00;99.90
49549;DHT22;35450;44.518;7.466;2023-06-14T09:26:57;19.00;99.90
49549;DHT22;35450;44.518;7.466;2023-06-14T09:30:08;19.00;99.90
49549;DHT22;35450;44.518;7.466;2023-06-14T09:33:17;19.10;99.90
49549;DHT22;35450;44.518;7.466;2023-06-14T09:36:23;19.10;99.90
49549;DHT22;35450;44.518;7.466;2023-06-14T09:39:27;19.10;99.90
49549;DHT22;35450;44.518;7.466;2023-06-14T09:42:31;19.10;99.90
49549;DHT22;35450;44.518;7.466;2023-06-14T09:45:36;19.10;99.90
49549;DHT22;35450;44.518;7.466;2023-06-14T09:48:43;19.20;99.90
49549;DHT22;35450;44.518;7.466;2023-06-14T09:51:51;19.10;99.90
49549;DHT22;35450;44.518;7.466;2023-06-14T09:54:59;19.20;99.90
49549;DHT22;35450;44.518;7.466;2023-06-14T09:58:07;19.20;99.90
49549;DHT22;35450;44.518;7.466;2023-06-14T10:01:12;19.20;99.90
49549;DHT22;35450;44.518;7.466;2023-06-14T10:04:19;19.20;99.90
49549;DHT22;35450;44.518;7.466;2023-06-14T10:07:26;19.30;99.90
49549;DHT22;35450;44.518;7.466;2023-06-14T10:10:34;19.30;99.90
49549;DHT22;35450;44.518;7.466;2023-06-14T10:13:38;19.30;99.90
49549;DHT22;35450;44.518;7.466;2023-06-14T10:21:16;19.40;99.90
49549;DHT22;35450;44.518;7.466;2023-06-14T10:23:54;19.50;99.90
49549;DHT22;35450;44.518;7.466;2023-06-14T10:27:01;19.40;99.90
49549;DHT22;35450;44.518;7.466;2023-06-14T10:30:07;19.50;99.90
49549;DHT22;35450;44.518;7.466;2023-06-14T10:33:15;19.50;99.90
49549;DHT22;35450;44.518;7.466;2023-06-14T10:39:26;19.50;99.90
49549;DHT22;35450;44.518;7.466;2023-06-14T10:42:33;19.60;99.90
49549;DHT22;35450;44.518;7.466;2023-06-14T10:46:13;19.60;99.90
49549;DHT22;35450;44.518;7.466;2023-06-14T10:49:18;19.80;99.90
49549;DHT22;35450;44.518;7.466;2023-06-14T10:52:24;19.80;99.90
49549;DHT22;35450;44.518;7.466;2023-06-14T10:55:34;19.90;99.90
49549;DHT22;35450;44.518;7.466;2023-06-14T10:58:39;20.00;99.90
49549;DHT22;35450;44.518;7.466;2023-06-14T11:02:19;20.00;99.90
49549;DHT22;35450;44.518;7.466;2023-06-14T11:05:28;20.10;99.90
49549;DHT22;35450;44.518;7.466;2023-06-14T11:11:59;20.30;99.90
49549;DHT22;35450;44.518;7.466;2023-06-14T11:15:05;20.30;99.90
49549;DHT22;35450;44.518;7.466;2023-06-14T11:18:10;20.40;99.90
49549;DHT22;35450;44.518;7.466;2023-06-14T11:21:19;20.50;99.90
49549;DHT22;35450;44.518;7.466;2023-06-14T11:24:23;20.40;99.90
49549;DHT22;35450;44.518;7.466;2023-06-14T11:27:27;20.30;99.90
49549;DHT22;35450;44.518;7.466;2023-06-14T11:30:31;20.30;99.90
49549;DHT22;35450;44.518;7.466;2023-06-14T11:33:36;20.40;99.90
49549;DHT22;35450;44.518;7.466;2023-06-14T11:36:40;20.50;99.90
49549;DHT22;35450;44.518;7.466;2023-06-14T11:39:45;20.40;99.90
49549;DHT22;35450;44.518;7.466;2023-06-14T11:42:49;20.50;99.90
49549;DHT22;35450;44.518;7.466;2023-06-14T11:45:53;20.50;99.90
49549;DHT22;35450;44.518;7.466;2023-06-14T11:48:58;20.60;99.90
49549;DHT22;35450;44.518;7.466;2023-06-14T11:52:02;20.60;99.90
49549;DHT22;35450;44.518;7.466;2023-06-14T11:55:06;20.70;99.90
49549;DHT22;35450;44.518;7.466;2023-06-14T11:58:11;20.80;99.90
49549;DHT22;35450;44.518;7.466;2023-06-14T12:01:19;20.90;99.90
49549;DHT22;35450;44.518;7.466;2023-06-14T12:04:27;21.00;99.90
49549;DHT22;35450;44.518;7.466;2023-06-14T12:07:30;21.00;99.90
49549;DHT22;35450;44.518;7.466;2023-06-14T12:10:44;21.10;99.90
49549;DHT22;35450;44.518;7.466;2023-06-14T12:13:49;21.00;99.90
49549;DHT22;35450;44.518;7.466;2023-06-14T12:17:06;21.10;99.90
49549;DHT22;35450;44.518;7.466;2023-06-14T12:20:12;21.10;99.90
49549;DHT22;35450;44.518;7.466;2023-06-14T12:23:25;21.10;99.90
49549;DHT22;35450;44.518;7.466;2023-06-14T12:26:30;21.00;99.90
49549;DHT22;35450;44.518;7.466;2023-06-14T12:29:35;21.00;99.90
49549;DHT22;35450;44.518;7.466;2023-06-14T12:32:39;21.00;99.90
49549;DHT22;35450;44.518;7.466;2023-06-14T12:35:43;21.00;99.90
49549;DHT22;35450;44.518;7.466;2023-06-14T12:38:48;21.00;99.90
49549;DHT22;35450;44.518;7.466;2023-06-14T12:41:52;21.00;99.90
49549;DHT22;35450;44.518;7.466;2023-06-14T12:44:56;21.00;99.90
49549;DHT22;35450;44.518;7.466;2023-06-14T12:48:00;21.00;99.90
49549;DHT22;35450;44.518;7.466;2023-06-14T12:51:04;21.00;99.90
49549;DHT22;35450;44.518;7.466;2023-06-14T12:54:09;21.10;99.90
49549;DHT22;35450;44.518;7.466;2023-06-14T12:57:13;21.10;99.90
49549;DHT22;35450;44.518;7.466;2023-06-14T13:00:17;21.10;99.90
49549;DHT22;35450;44.518;7.466;2023-06-14T13:03:22;21.30;99.90
49549;DHT22;35450;44.518;7.466;2023-06-14T13:06:26;21.30;99.90
49549;DHT22;35450;44.518;7.466;2023-06-14T13:09:30;21.40;99.90
49549;DHT22;35450;44.518;7.466;2023-06-14T13:12:35;21.30;99.90
49549;DHT22;35450;44.518;7.466;2023-06-14T13:15:40;21.40;99.90
49549;DHT22;35450;44.518;7.466;2023-06-14T13:18:44;21.50;99.90
49549;DHT22;35450;44.518;7.466;2023-06-14T13:21:48;21.60;99.90
49549;DHT22;35450;44.518;7.466;2023-06-14T13:24:53;21.60;99.90
49549;DHT22;35450;44.518;7.466;2023-06-14T13:27:57;21.60;99.90
49549;DHT22;35450;44.518;7.466;2023-06-14T13:31:01;21.70;99.90
49549;DHT22;35450;44.518;7.466;2023-06-14T13:34:06;21.80;99.80
49549;DHT22;35450;44.518;7.466;2023-06-14T13:37:10;22.00;99.40
49549;DHT22;35450;44.518;7.466;2023-06-14T13:40:14;22.00;99.90
49549;DHT22;35450;44.518;7.466;2023-06-14T13:43:19;22.10;99.90
49549;DHT22;35450;44.518;7.466;2023-06-14T13:46:23;22.10;99.90
49549;DHT22;35450;44.518;7.466;2023-06-14T13:49:27;22.00;99.90
49549;DHT22;35450;44.518;7.466;2023-06-14T13:52:31;22.00;99.90
49549;DHT22;35450;44.518;7.466;2023-06-14T13:55:36;21.90;99.90
49549;DHT22;35450;44.518;7.466;2023-06-14T13:58:41;21.90;99.90
49549;DHT22;35450;44.518;7.466;2023-06-14T14:01:46;22.00;99.90
49549;DHT22;35450;44.518;7.466;2023-06-14T14:04:50;22.10;99.90
49549;DHT22;35450;44.518;7.466;2023-06-14T14:07:57;22.10;99.90
49549;DHT22;35450;44.518;7.466;2023-06-14T14:11:02;22.20;99.90
49549;DHT22;35450;44.518;7.466;2023-06-14T14:14:06;22.00;99.90
49549;DHT22;35450;44.518;7.466;2023-06-14T14:17:11;21.90;99.90
49549;DHT22;35450;44.518;7.466;2023-06-14T14:20:15;22.00;99.90
49549;DHT22;35450;44.518;7.466;2023-06-14T14:23:21;22.10;99.90
49549;DHT22;35450;44.518;7.466;2023-06-14T14:26:26;22.20;99.90
49549;DHT22;35450;44.518;7.466;2023-06-14T14:29:30;22.20;99.90
49549;DHT22;35450;44.518;7.466;2023-06-14T14:32:34;22.20;99.90
49549;DHT22;35450;44.518;7.466;2023-06-14T14:35:38;22.20;99.90
49549;DHT22;35450;44.518;7.466;2023-06-14T14:38:42;22.20;99.90
49549;DHT22;35450;44.518;7.466;2023-06-14T14:41:46;22.20;99.90
49549;DHT22;35450;44.518;7.466;2023-06-14T14:44:51;22.20;99.90
49549;DHT22;35450;44.518;7.466;2023-06-14T14:47:55;22.20;99.90
49549;DHT22;35450;44.518;7.466;2023-06-14T14:50:59;22.20;99.90
49549;DHT22;35450;44.518;7.466;2023-06-14T14:54:03;22.20;99.90
49549;DHT22;35450;44.518;7.466;2023-06-14T14:57:07;22.20;99.90
49549;DHT22;35450;44.518;7.466;2023-06-14T15:00:11;22.30;99.90
49549;DHT22;35450;44.518;7.466;2023-06-14T15:03:16;22.40;99.90
49549;DHT22;35450;44.518;7.466;2023-06-14T15:06:28;22.50;99.90
49549;DHT22;35450;44.518;7.466;2023-06-14T15:09:32;22.60;99.90
49549;DHT22;35450;44.518;7.466;2023-06-14T15:12:36;22.70;99.90
49549;DHT22;35450;44.518;7.466;2023-06-14T15:15:41;22.70;99.90
49549;DHT22;35450;44.518;7.466;2023-06-14T15:18:45;22.80;99.90
49549;DHT22;35450;44.518;7.466;2023-06-14T15:21:49;22.80;99.90
49549;DHT22;35450;44.518;7.466;2023-06-14T15:24:53;22.70;99.80
49549;DHT22;35450;44.518;7.466;2023-06-14T15:27:57;22.70;99.90
49549;DHT22;35450;44.518;7.466;2023-06-14T15:31:02;22.60;99.70
49549;DHT22;35450;44.518;7.466;2023-06-14T15:34:06;22.60;99.60
49549;DHT22;35450;44.518;7.466;2023-06-14T15:37:10;22.60;99.70
49549;DHT22;35450;44.518;7.466;2023-06-14T15:40:15;22.60;99.60
49549;DHT22;35450;44.518;7.466;2023-06-14T15:43:20;22.60;99.50
49549;DHT22;35450;44.518;7.466;2023-06-14T15:46:23;22.60;99.20
49549;DHT22;35450;44.518;7.466;2023-06-14T15:49:27;22.70;99.50
49549;DHT22;35450;44.518;7.466;2023-06-14T15:52:31;22.70;99.90
49549;DHT22;35450;44.518;7.466;2023-06-14T15:55:36;22.80;99.90
49549;DHT22;35450;44.518;7.466;2023-06-14T15:58:40;22.70;99.90
49549;DHT22;35450;44.518;7.466;2023-06-14T16:01:44;22.70;99.90
49549;DHT22;35450;44.518;7.466;2023-06-14T16:04:47;22.60;99.90
49549;DHT22;35450;44.518;7.466;2023-06-14T16:07:52;22.50;99.90
49549;DHT22;35450;44.518;7.466;2023-06-14T16:10:56;22.60;99.90
49549;DHT22;35450;44.518;7.466;2023-06-14T16:14:03;22.60;99.90
49549;DHT22;35450;44.518;7.466;2023-06-14T16:17:08;22.70;99.50
49549;DHT22;35450;44.518;7.466;2023-06-14T16:20:12;22.90;99.30
49549;DHT22;35450;44.518;7.466;2023-06-14T16:23:16;23.00;98.90
49549;DHT22;35450;44.518;7.466;2023-06-14T16:26:20;23.10;98.70
49549;DHT22;35450;44.518;7.466;2023-06-14T16:29:24;23.10;99.10
49549;DHT22;35450;44.518;7.466;2023-06-14T16:32:28;23.20;99.00
49549;DHT22;35450;44.518;7.466;2023-06-14T16:35:33;23.30;98.80
49549;DHT22;35450;44.518;7.466;2023-06-14T16:38:37;23.20;98.60
49549;DHT22;35450;44.518;7.466;2023-06-14T16:41:41;23.10;99.20
49549;DHT22;35450;44.518;7.466;2023-06-14T16:44:46;23.20;99.40
49549;DHT22;35450;44.518;7.466;2023-06-14T16:47:49;23.20;98.80
49549;DHT22;35450;44.518;7.466;2023-06-14T16:50:53;23.20;99.00
49549;DHT22;35450;44.518;7.466;2023-06-14T16:53:58;23.30;98.70
49549;DHT22;35450;44.518;7.466;2023-06-14T16:57:02;23.30;98.50
49549;DHT22;35450;44.518;7.466;2023-06-14T17:00:06;23.10;99.80
49549;DHT22;35450;44.518;7.466;2023-06-14T17:03:11;22.80;99.90
49549;DHT22;35450;44.518;7.466;2023-06-14T17:06:15;22.60;99.90
49549;DHT22;35450;44.518;7.466;2023-06-14T17:09:19;22.40;99.90
49549;DHT22;35450;44.518;7.466;2023-06-14T17:12:23;22.30;99.90
49549;DHT22;35450;44.518;7.466;2023-06-14T17:15:27;22.10;99.90
49549;DHT22;35450;44.518;7.466;2023-06-14T17:18:31;21.90;99.90
49549;DHT22;35450;44.518;7.466;2023-06-14T17:21:35;21.90;99.90
49549;DHT22;35450;44.518;7.466;2023-06-14T17:24:39;21.90;99.90
49549;DHT22;35450;44.518;7.466;2023-06-14T17:27:44;21.90;99.90
49549;DHT22;35450;44.518;7.466;2023-06-14T17:30:47;21.90;99.90
49549;DHT22;35450;44.518;7.466;2023-06-14T17:33:51;21.90;99.90
49549;DHT22;35450;44.518;7.466;2023-06-14T17:36:55;22.00;99.90
49549;DHT22;35450;44.518;7.466;2023-06-14T17:39:59;22.00;99.90
49549;DHT22;35450;44.518;7.466;2023-06-14T17:43:04;22.00;99.90
49549;DHT22;35450;44.518;7.466;2023-06-14T17:46:08;22.00;99.90
49549;DHT22;35450;44.518;7.466;2023-06-14T17:49:12;22.10;99.90
49549;DHT22;35450;44.518;7.466;2023-06-14T17:52:16;22.10;99.90
49549;DHT22;35450;44.518;7.466;2023-06-14T17:55:22;22.10;99.90
49549;DHT22;35450;44.518;7.466;2023-06-14T17:58:26;22.20;99.90
49549;DHT22;35450;44.518;7.466;2023-06-14T18:01:29;22.20;99.90
49549;DHT22;35450;44.518;7.466;2023-06-14T18:04:34;22.20;99.90
49549;DHT22;35450;44.518;7.466;2023-06-14T18:07:38;22.20;99.90
49549;DHT22;35450;44.518;7.466;2023-06-14T18:10:42;22.10;99.90
49549;DHT22;35450;44.518;7.466;2023-06-14T18:13:46;22.00;99.90
49549;DHT22;35450;44.518;7.466;2023-06-14T18:16:50;22.00;99.90
49549;DHT22;35450;44.518;7.466;2023-06-14T18:19:54;22.00;99.90
49549;DHT22;35450;44.518;7.466;2023-06-14T18:22:58;21.90;99.90
49549;DHT22;35450;44.518;7.466;2023-06-14T18:26:02;21.90;99.90
49549;DHT22;35450;44.518;7.466;2023-06-14T18:29:06;21.80;99.90
49549;DHT22;35450;44.518;7.466;2023-06-14T18:32:10;21.60;99.90
49549;DHT22;35450;44.518;7.466;2023-06-14T18:35:15;21.60;99.90
49549;DHT22;35450;44.518;7.466;2023-06-14T18:38:19;21.60;99.90
49549;DHT22;35450;44.518;7.466;2023-06-14T18:41:23;21.70;99.90
49549;DHT22;35450;44.518;7.466;2023-06-14T18:44:28;21.70;99.90
49549;DHT22;35450;44.518;7.466;2023-06-14T18:47:32;21.60;99.90
49549;DHT22;35450;44.518;7.466;2023-06-14T18:50:36;21.60;99.90
49549;DHT22;35450;44.518;7.466;2023-06-14T18:53:41;21.50;99.90
49549;DHT22;35450;44.518;7.466;2023-06-14T18:56:45;21.50;99.90
49549;DHT22;35450;44.518;7.466;2023-06-14T18:59:49;21.40;99.90
49549;DHT22;35450;44.518;7.466;2023-06-14T19:02:53;21.40;99.90
49549;DHT22;35450;44.518;7.466;2023-06-14T19:05:57;21.30;99.90
49549;DHT22;35450;44.518;7.466;2023-06-14T19:09:02;21.20;99.90
49549;DHT22;35450;44.518;7.466;2023-06-14T19:12:07;21.00;99.90
49549;DHT22;35450;44.518;7.466;2023-06-14T19:15:11;21.00;99.90
49549;DHT22;35450;44.518;7.466;2023-06-14T19:18:15;21.00;99.90
49549;DHT22;35450;44.518;7.466;2023-06-14T19:21:19;21.00;99.90
49549;DHT22;35450;44.518;7.466;2023-06-14T19:24:23;20.90;99.90
49549;DHT22;35450;44.518;7.466;2023-06-14T19:27:27;20.90;99.90
49549;DHT22;35450;44.518;7.466;2023-06-14T19:30:31;20.80;99.90
49549;DHT22;35450;44.518;7.466;2023-06-14T19:33:35;20.80;99.90
49549;DHT22;35450;44.518;7.466;2023-06-14T19:36:39;20.60;99.90
49549;DHT22;35450;44.518;7.466;2023-06-14T19:39:43;20.60;99.90
49549;DHT22;35450;44.518;7.466;2023-06-14T19:42:47;20.50;99.90
49549;DHT22;35450;44.518;7.466;2023-06-14T19:45:51;20.50;99.90